Four Buttes, Montana
Current Conditions -  °F | °C
As of 12:53 AM on Sunday 26 Oct 2014 (Local Time) from KOLF Reporting Station
Clear Clear  
Wind Chill: 43°   Ceiling: Unl
Heat Index: 48°   Visibility: 10mi
Dew Point: 33°   Wind: 10mph
Humidity: 56%   Direction: 80°E
Pressure: 29.59"   Gusts: NA
Location:  48.7328°N, 105.394°W
Report Text: KOLF 260653Z AUTO 08009KT 10SM CLR 09/01 A2959 RMK AO2 SLP021 T00890006 402000028
Loading
Personal Weather Stations






























Interactive Weather Map
Tropical Storm Tracking
New forecast layout! Learn more

10-Day Weather Forecast

Advertisements
Track Severe Weather on mobile